Time;durP1;ratioP1;P1;durP2;ratioP2;P2;SDS_P1;SDS_P2;PMS_P1;PMS_P2;Temp;Humidity;BMP_temperature;BMP_pressure;BME280_temperature;BME280_humidity;BME280_pressure;Samples;Min_cycle;Max_cycle;Signal;HPM_P1;HPM_P2
2022/12/19 00:00:44;;;;;;;32.07;15.57;;;2.40;52.90;;;;;;4917577;29;20451;-86
2022/12/19 00:03:11;;;;;;;35.80;15.63;;;2.50;53.50;;;;;;4905079;29;20471;-85
2022/12/19 00:05:38;;;;;;;29.53;14.20;;;2.70;52.80;;;;;;4903291;29;20456;-85
2022/12/19 00:08:06;;;;;;;38.53;16.00;;;2.60;53.30;;;;;;4894349;29;20467;-86
2022/12/19 00:10:33;;;;;;;37.77;15.63;;;2.60;52.60;;;;;;4885862;29;20455;-83
2022/12/19 00:13:00;;;;;;;33.30;13.73;;;2.40;52.70;;;;;;4893744;29;20458;-85
2022/12/19 00:15:27;;;;;;;36.10;16.70;;;2.50;52.80;;;;;;4880696;29;20471;-86
2022/12/19 00:17:55;;;;;;;29.37;14.00;;;2.50;52.80;;;;;;4878630;29;20471;-85
2022/12/19 00:20:22;;;;;;;33.13;14.93;;;2.60;52.70;;;;;;4919374;29;20450;-86
2022/12/19 00:22:49;;;;;;;29.50;15.17;;;2.50;52.10;;;;;;4903497;29;20479;-86
2022/12/19 00:25:16;;;;;;;29.40;14.63;;;2.50;52.60;;;;;;4916402;29;20479;-85
2022/12/19 00:27:43;;;;;;;37.97;16.90;;;2.30;53.10;;;;;;4892805;29;20460;-85
2022/12/19 00:30:12;;;;;;;31.53;14.03;;;2.30;53.10;;;;;;4879357;29;20457;-86
2022/12/19 00:32:39;;;;;;;39.33;17.17;;;2.40;53.10;;;;;;4898435;29;20555;-85
2022/12/19 00:35:08;;;;;;;39.20;16.63;;;2.50;52.80;;;;;;4903194;29;20493;-84
2022/12/19 00:37:35;;;;;;;36.50;19.30;;;2.30;52.60;;;;;;4900986;29;21480;-83
2022/12/19 00:40:04;;;;;;;36.63;15.30;;;2.30;53.10;;;;;;4885847;29;20994;-85
2022/12/19 00:42:31;;;;;;;44.30;16.90;;;2.40;53.40;;;;;;4913435;29;20458;-84
2022/12/19 00:44:58;;;;;;;34.07;15.93;;;2.50;53.00;;;;;;4899444;29;21073;-87
2022/12/19 00:47:26;;;;;;;38.77;15.77;;;2.40;52.70;;;;;;4883829;29;20480;-85
2022/12/19 00:49:53;;;;;;;32.40;14.83;;;2.50;52.80;;;;;;4913955;29;20451;-86
2022/12/19 00:52:22;;;;;;;30.30;14.20;;;2.50;52.60;;;;;;4888644;29;20869;-85
2022/12/19 00:54:49;;;;;;;36.13;15.37;;;2.30;52.80;;;;;;4885320;29;20562;-84
2022/12/19 00:57:18;;;;;;;32.70;14.63;;;2.30;52.90;;;;;;4908312;29;20458;-85
2022/12/19 00:59:45;;;;;;;30.60;16.80;;;2.20;53.30;;;;;;4908202;29;20486;-85
2022/12/19 01:02:12;;;;;;;37.37;16.97;;;2.20;53.20;;;;;;4886578;29;20455;-85
2022/12/19 01:04:39;;;;;;;31.23;16.03;;;2.40;53.50;;;;;;4921883;29;20849;-85
2022/12/19 01:07:07;;;;;;;46.17;17.77;;;2.40;53.20;;;;;;4904900;29;20459;-85
2022/12/19 01:09:36;;;;;;;45.30;17.47;;;2.40;53.50;;;;;;4873801;29;20973;-84
2022/12/19 01:14:48;;;;;;;35.43;14.43;;;2.50;54.00;;;;;;4891183;29;20868;-84
2022/12/19 01:17:15;;;;;;;36.57;14.90;;;2.70;53.30;;;;;;4928052;29;20743;-86
2022/12/19 01:19:43;;;;;;;37.40;18.07;;;2.70;53.00;;;;;;4876453;29;21008;-86
2022/12/19 01:22:10;;;;;;;31.10;15.53;;;2.40;52.70;;;;;;4912850;29;20455;-86
2022/12/19 01:24:38;;;;;;;35.83;16.30;;;2.30;53.40;;;;;;4877230;29;20474;-85
2022/12/19 01:27:06;;;;;;;41.97;16.90;;;2.10;53.60;;;;;;4921014;29;20844;-84
2022/12/19 01:29:33;;;;;;;38.20;17.53;;;2.30;53.90;;;;;;4906435;29;20450;-86
2022/12/19 01:32:00;;;;;;;45.20;18.27;;;2.40;53.50;;;;;;4896183;29;20464;-84
2022/12/19 01:34:27;;;;;;;43.03;15.17;;;2.40;53.40;;;;;;4905507;29;20471;-85
2022/12/19 01:36:54;;;;;;;35.70;15.17;;;2.30;53.30;;;;;;4919901;29;20813;-86
2022/12/19 01:39:22;;;;;;;47.20;17.40;;;2.40;53.70;;;;;;4920374;29;20475;-84
2022/12/19 01:41:50;;;;;;;40.17;17.63;;;2.30;53.90;;;;;;4898886;29;20448;-84
2022/12/19 01:44:17;;;;;;;35.00;17.20;;;2.40;53.60;;;;;;4919730;29;20993;-83
2022/12/19 01:46:47;;;;;;;44.30;19.50;;;2.50;53.40;;;;;;4907343;29;20843;-87
2022/12/19 01:49:19;;;;;;;34.13;15.67;;;2.60;53.10;;;;;;4877895;29;20452;-87
2022/12/19 01:51:48;;;;;;;33.13;16.30;;;2.40;53.30;;;;;;4932854;28;20458;-85
2022/12/19 01:54:19;;;;;;;34.80;15.47;;;2.50;53.20;;;;;;4895768;29;20479;-85
2022/12/19 01:56:52;;;;;;;41.47;17.23;;;2.50;53.30;;;;;;4918060;29;21057;-86
2022/12/19 01:59:23;;;;;;;31.20;13.90;;;2.40;53.20;;;;;;4904165;29;20896;-86
2022/12/19 02:01:54;;;;;;;32.40;15.70;;;2.40;53.10;;;;;;4893851;29;20455;-85
2022/12/19 02:04:26;;;;;;;44.33;17.80;;;2.60;53.40;;;;;;4920069;29;20474;-85
2022/12/19 02:06:55;;;;;;;33.17;16.83;;;2.50;53.00;;;;;;4912095;29;20538;-84
2022/12/19 02:09:24;;;;;;;34.50;15.50;;;2.30;53.80;;;;;;4895855;29;20880;-85
2022/12/19 02:11:53;;;;;;;45.53;16.73;;;2.30;54.10;;;;;;4926945;29;20455;-85
2022/12/19 02:14:21;;;;;;;38.43;16.33;;;2.20;54.60;;;;;;4910557;29;20480;-85
2022/12/19 02:16:58;;;;;;;38.43;17.87;;;2.30;54.50;;;;;;4893392;29;20467;-84
2022/12/19 02:20:08;;;;;;;36.50;16.53;;;2.50;54.70;;;;;;4910954;29;20484;-86
2022/12/19 02:22:54;;;;;;;36.87;16.10;;;2.40;53.70;;;;;;4909636;29;20470;-86
2022/12/19 02:25:56;;;;;;;36.20;15.77;;;2.30;53.70;;;;;;4906702;29;20501;-83
2022/12/19 02:28:53;;;;;;;33.63;16.87;;;2.50;54.00;;;;;;4911298;29;20451;-85
2022/12/19 02:31:27;;;;;;;47.97;16.53;;;2.70;53.90;;;;;;4909993;29;20463;-86
2022/12/19 02:33:56;;;;;;;38.83;15.73;;;2.70;53.50;;;;;;4919058;29;20565;-85
2022/12/19 02:36:29;;;;;;;38.57;16.33;;;2.70;53.60;;;;;;4903985;29;20813;-85
2022/12/19 02:39:01;;;;;;;39.63;16.67;;;2.90;53.70;;;;;;4879150;29;20534;-85
2022/12/19 02:41:42;;;;;;;39.47;16.33;;;2.90;53.70;;;;;;4906090;29;20555;-85
2022/12/19 02:44:13;;;;;;;33.13;15.87;;;3.00;53.50;;;;;;4908402;29;20996;-86
2022/12/19 02:46:44;;;;;;;41.13;17.77;;;3.10;53.40;;;;;;4923970;29;20452;-85
2022/12/19 02:49:13;;;;;;;40.60;17.40;;;2.90;53.20;;;;;;4909736;29;20462;-85
2022/12/19 02:51:40;;;;;;;48.53;19.37;;;2.70;53.40;;;;;;4918799;29;20453;-85
2022/12/19 02:54:09;;;;;;;49.10;20.87;;;2.50;54.20;;;;;;4908321;29;20479;-86
2022/12/19 02:56:47;;;;;;;39.77;15.70;;;2.60;54.50;;;;;;4908815;29;20475;-85
2022/12/19 02:59:27;;;;;;;40.37;18.07;;;2.50;53.80;;;;;;4887812;29;20555;-85
2022/12/19 03:02:03;;;;;;;42.23;18.20;;;2.30;54.40;;;;;;4933467;29;20483;-85
2022/12/19 03:04:44;;;;;;;40.87;16.87;;;2.30;54.40;;;;;;4914279;29;20467;-84
2022/12/19 03:07:21;;;;;;;35.07;15.93;;;2.40;54.60;;;;;;4924719;29;20455;-85
2022/12/19 03:09:55;;;;;;;35.00;15.93;;;2.50;54.20;;;;;;4901990;29;20995;-85
2022/12/19 03:12:28;;;;;;;39.67;18.90;;;2.60;54.10;;;;;;4887661;29;20451;-84
2022/12/19 03:14:58;;;;;;;36.70;16.30;;;2.70;53.80;;;;;;4909365;29;20507;-86
2022/12/19 03:17:28;;;;;;;38.03;15.43;;;2.80;53.90;;;;;;4909302;29;20551;-86
2022/12/19 03:19:56;;;;;;;49.67;16.47;;;2.80;53.90;;;;;;4919094;29;20485;-85
2022/12/19 03:22:23;;;;;;;34.30;15.97;;;2.60;53.90;;;;;;4934243;28;20969;-85
2022/12/19 03:24:50;;;;;;;29.10;12.73;;;2.70;54.20;;;;;;4891563;29;20482;-85
2022/12/19 03:27:22;;;;;;;35.60;16.97;;;2.80;54.00;;;;;;4903547;29;20987;-85
2022/12/19 03:29:54;;;;;;;41.87;16.10;;;2.60;54.10;;;;;;4916536;29;20530;-86
2022/12/19 03:32:24;;;;;;;33.00;15.00;;;2.50;54.20;;;;;;4907475;29;20467;-85
2022/12/19 03:34:57;;;;;;;41.63;16.57;;;2.70;54.50;;;;;;4910075;29;20485;-85
2022/12/19 03:37:27;;;;;;;36.03;17.37;;;3.00;54.30;;;;;;4906150;29;20459;-87
2022/12/19 03:39:58;;;;;;;41.27;17.33;;;3.00;53.90;;;;;;4888617;29;20478;-85
2022/12/19 03:45:17;;;;;;;43.77;17.77;;;2.70;54.50;;;;;;4908432;29;20892;-85
2022/12/19 03:47:50;;;;;;;40.77;18.37;;;2.80;54.70;;;;;;4899526;29;20462;-85
2022/12/19 03:50:18;;;;;;;34.30;16.73;;;2.60;54.80;;;;;;4893297;29;20466;-85
2022/12/19 03:52:52;;;;;;;39.47;19.20;;;2.70;55.20;;;;;;4918336;29;20452;-85
2022/12/19 03:55:23;;;;;;;24.20;14.70;;;2.80;55.30;;;;;;4900812;29;20490;-85
2022/12/19 03:57:56;;;;;;;40.10;16.10;;;2.60;55.10;;;;;;4888396;29;20463;-83
2022/12/19 04:00:25;;;;;;;34.57;16.47;;;2.70;55.50;;;;;;4931303;29;20491;-85
2022/12/19 04:02:56;;;;;;;31.53;16.10;;;2.50;55.50;;;;;;4889820;29;20456;-86
2022/12/19 04:05:26;;;;;;;48.33;17.20;;;2.60;56.10;;;;;;4869656;29;20491;-86
2022/12/19 04:07:56;;;;;;;35.70;17.50;;;2.70;56.20;;;;;;4933418;28;21261;-85
2022/12/19 04:10:26;;;;;;;45.10;18.77;;;2.60;56.50;;;;;;4931252;29;20450;-86
2022/12/19 04:12:58;;;;;;;34.90;17.60;;;2.60;56.20;;;;;;4903908;29;20466;-85
2022/12/19 04:15:34;;;;;;;34.73;18.40;;;2.80;55.90;;;;;;4889500;29;20484;-87
2022/12/19 04:18:06;;;;;;;37.47;17.20;;;3.00;55.60;;;;;;4879595;29;20448;-85
2022/12/19 04:20:38;;;;;;;47.40;19.90;;;3.00;55.20;;;;;;4917045;29;20852;-84
2022/12/19 04:23:13;;;;;;;35.00;17.10;;;3.20;55.00;;;;;;4909272;29;20527;-85
2022/12/19 04:25:44;;;;;;;39.80;17.50;;;3.20;54.20;;;;;;4925464;29;20480;-86
2022/12/19 04:28:18;;;;;;;53.60;22.50;;;3.20;54.40;;;;;;4908680;29;20443;-84
2022/12/19 04:30:48;;;;;;;36.87;18.53;;;3.30;54.70;;;;;;4892588;29;20527;-85
2022/12/19 04:33:15;;;;;;;32.13;17.00;;;3.20;54.90;;;;;;4890195;29;20455;-86
2022/12/19 04:35:44;;;;;;;41.13;19.10;;;3.20;55.20;;;;;;4903407;29;20462;-85
2022/12/19 04:38:11;;;;;;;38.83;17.47;;;3.10;54.70;;;;;;4909588;29;20462;-85
2022/12/19 04:40:38;;;;;;;38.50;20.23;;;3.00;55.10;;;;;;4892458;29;20487;-85
2022/12/19 04:43:06;;;;;;;36.97;19.00;;;3.20;55.10;;;;;;4918957;29;20459;-86
2022/12/19 04:45:33;;;;;;;40.73;18.30;;;3.30;54.90;;;;;;4902942;29;20466;-85
2022/12/19 04:48:00;;;;;;;34.53;17.07;;;3.10;55.10;;;;;;4904187;29;20460;-86
2022/12/19 04:50:27;;;;;;;38.70;18.33;;;3.40;55.10;;;;;;4891650;29;20484;-87
2022/12/19 04:52:55;;;;;;;39.63;18.40;;;3.50;54.70;;;;;;4898256;29;20976;-86
2022/12/19 04:55:22;;;;;;;40.83;19.80;;;3.30;53.60;;;;;;4925797;28;20482;-85
2022/12/19 04:57:49;;;;;;;38.20;20.43;;;3.40;54.10;;;;;;4905560;29;20533;-86
2022/12/19 05:00:16;;;;;;;39.10;17.97;;;3.60;54.50;;;;;;4916300;29;20486;-85
2022/12/19 05:02:44;;;;;;;38.27;17.77;;;3.40;54.30;;;;;;4883733;29;20458;-86
2022/12/19 05:05:11;;;;;;;37.77;17.43;;;3.10;54.30;;;;;;4897858;29;20487;-87
2022/12/19 05:07:39;;;;;;;46.77;19.23;;;2.90;54.90;;;;;;4880039;29;20501;-87
2022/12/19 05:10:08;;;;;;;45.67;20.50;;;3.10;55.00;;;;;;4891942;29;20437;-85
2022/12/19 05:12:35;;;;;;;42.80;18.00;;;3.30;54.80;;;;;;4914509;29;20554;-85
2022/12/19 05:15:02;;;;;;;47.67;17.37;;;3.30;54.80;;;;;;4899154;29;20513;-86
2022/12/19 05:17:29;;;;;;;40.70;18.17;;;3.10;54.60;;;;;;4888822;29;20459;-87
2022/12/19 05:19:56;;;;;;;36.40;16.80;;;3.10;55.20;;;;;;4869396;29;20473;-86
2022/12/19 05:22:23;;;;;;;46.97;18.37;;;3.30;55.30;;;;;;4880932;29;20506;-85
2022/12/19 05:24:51;;;;;;;44.83;17.97;;;3.40;54.80;;;;;;4904608;29;20490;-85
2022/12/19 05:27:19;;;;;;;39.63;18.40;;;3.50;54.80;;;;;;4890255;29;20482;-87
2022/12/19 05:29:47;;;;;;;43.83;18.60;;;3.50;54.70;;;;;;4873782;29;20547;-86
2022/12/19 05:32:13;;;;;;;32.83;17.23;;;3.60;54.00;;;;;;4914083;29;20948;-86
2022/12/19 05:34:40;;;;;;;35.13;17.23;;;3.20;54.20;;;;;;4873682;29;20479;-87
2022/12/19 05:37:07;;;;;;;46.13;19.07;;;3.20;54.60;;;;;;4898435;29;20458;-87
2022/12/19 05:39:34;;;;;;;33.47;16.13;;;3.20;54.80;;;;;;4882188;29;20485;-85
2022/12/19 05:42:01;;;;;;;34.57;17.40;;;3.40;54.70;;;;;;4905824;29;20542;-88
2022/12/19 05:44:30;;;;;;;38.73;18.40;;;3.40;54.30;;;;;;4898822;29;20478;-85
2022/12/19 05:46:56;;;;;;;44.90;22.47;;;3.20;54.50;;;;;;4874109;29;20565;-85
2022/12/19 05:49:23;;;;;;;40.00;18.03;;;3.30;55.00;;;;;;4884487;29;20451;-86
2022/12/19 05:51:50;;;;;;;40.43;16.27;;;3.30;54.90;;;;;;4892000;29;20961;-83
2022/12/19 05:54:17;;;;;;;46.50;19.23;;;3.50;54.40;;;;;;4933530;29;20475;-86
2022/12/19 05:56:44;;;;;;;42.73;18.30;;;3.60;53.80;;;;;;4914742;29;21154;-86
2022/12/19 05:59:11;;;;;;;41.93;18.83;;;3.50;54.00;;;;;;4924693;29;20471;-87
2022/12/19 06:01:40;;;;;;;44.57;18.93;;;3.40;54.20;;;;;;4893360;29;20487;-86
2022/12/19 06:04:07;;;;;;;35.50;17.63;;;3.40;54.60;;;;;;4915292;29;20470;-86
2022/12/19 06:06:34;;;;;;;39.30;19.13;;;3.60;54.50;;;;;;4888842;29;20957;-88
2022/12/19 06:09:01;;;;;;;43.50;19.50;;;3.50;53.90;;;;;;4912244;29;20448;-86
2022/12/19 06:11:28;;;;;;;36.57;16.17;;;3.60;54.50;;;;;;4922839;29;20490;-86
2022/12/19 06:13:55;;;;;;;37.50;18.80;;;3.60;54.40;;;;;;4901949;29;20476;-86
2022/12/19 06:16:23;;;;;;;42.63;20.73;;;3.50;54.60;;;;;;4883210;29;20450;-85
2022/12/19 06:18:52;;;;;;;43.60;19.87;;;3.60;54.70;;;;;;4908617;29;20562;-86
2022/12/19 06:21:21;;;;;;;43.63;19.30;;;3.70;54.50;;;;;;4887553;29;20458;-85
2022/12/19 06:23:48;;;;;;;40.70;18.93;;;3.70;54.10;;;;;;4875960;29;20478;-86
2022/12/19 06:26:17;;;;;;;42.80;19.70;;;3.60;54.10;;;;;;4914282;29;20456;-87
2022/12/19 06:28:44;;;;;;;46.53;19.47;;;3.50;54.20;;;;;;4898238;29;20480;-85
2022/12/19 06:31:12;;;;;;;46.10;19.87;;;3.30;54.70;;;;;;4900531;29;20479;-87
2022/12/19 06:33:39;;;;;;;39.80;17.87;;;3.60;54.90;;;;;;4892095;29;20500;-86
2022/12/19 06:36:11;;;;;;;45.53;19.80;;;3.70;54.40;;;;;;4891848;29;20459;-87
2022/12/19 06:38:38;;;;;;;42.63;20.63;;;3.50;54.50;;;;;;4915366;29;20455;-86
2022/12/19 06:43:50;;;;;;;42.47;17.70;;;3.40;55.00;;;;;;4916287;29;20475;-86
2022/12/19 06:46:18;;;;;;;50.50;18.57;;;3.60;54.90;;;;;;4907338;29;20847;-86
2022/12/19 06:48:45;;;;;;;51.97;19.37;;;3.40;54.80;;;;;;4900460;29;20467;-86
2022/12/19 06:51:13;;;;;;;39.10;18.53;;;3.40;55.30;;;;;;4899826;29;20456;-86
2022/12/19 06:53:40;;;;;;;36.00;18.17;;;3.20;55.40;;;;;;4924617;29;20472;-85
2022/12/19 06:56:08;;;;;;;46.47;19.20;;;3.40;55.90;;;;;;4938296;28;20475;-85
2022/12/19 06:58:35;;;;;;;40.90;18.53;;;3.30;55.50;;;;;;4902127;29;20503;-86
2022/12/19 07:01:02;;;;;;;36.97;19.80;;;3.10;56.30;;;;;;4883500;29;20491;-85
2022/12/19 07:03:32;;;;;;;44.57;19.77;;;3.30;56.30;;;;;;4894382;29;20526;-86
2022/12/19 07:05:59;;;;;;;37.97;16.77;;;3.40;56.00;;;;;;4910910;29;20457;-86
2022/12/19 07:08:28;;;;;;;47.87;20.27;;;3.30;56.10;;;;;;4887547;29;20474;-84
2022/12/19 07:10:55;;;;;;;43.27;18.97;;;3.40;55.90;;;;;;4885329;29;20538;-83
2022/12/19 07:13:22;;;;;;;49.40;22.33;;;3.30;56.40;;;;;;4921294;29;21184;-85
2022/12/19 07:15:50;;;;;;;51.17;18.47;;;3.30;56.20;;;;;;4903199;29;20460;-84
2022/12/19 07:18:17;;;;;;;38.73;20.43;;;3.50;56.00;;;;;;4902200;29;20451;-85
2022/12/19 07:20:45;;;;;;;47.50;20.20;;;3.70;55.90;;;;;;4886610;29;20467;-86
2022/12/19 07:23:16;;;;;;;48.10;20.67;;;3.90;55.50;;;;;;4919097;29;20554;-83
2022/12/19 07:25:44;;;;;;;46.43;21.57;;;3.90;55.50;;;;;;4921853;29;20937;-85
2022/12/19 07:28:11;;;;;;;44.07;21.30;;;3.90;55.40;;;;;;4915669;29;20451;-86
2022/12/19 07:30:38;;;;;;;43.77;19.80;;;4.00;55.50;;;;;;4925620;29;20549;-87
2022/12/19 07:33:05;;;;;;;54.33;22.17;;;3.90;55.00;;;;;;4884104;29;20441;-86
2022/12/19 07:35:32;;;;;;;44.63;20.53;;;3.80;55.20;;;;;;4918938;29;20439;-86
2022/12/19 07:38:02;;;;;;;40.73;17.63;;;3.70;55.80;;;;;;4893387;29;20455;-86
2022/12/19 07:40:29;;;;;;;51.47;21.73;;;3.90;55.80;;;;;;4869853;29;20680;-85
2022/12/19 07:43:00;;;;;;;61.70;22.03;;;3.90;55.50;;;;;;4908172;29;20545;-85
2022/12/19 07:45:27;;;;;;;50.40;21.03;;;3.80;55.40;;;;;;4889419;29;20478;-86
2022/12/19 07:47:55;;;;;;;57.70;21.20;;;3.90;55.50;;;;;;4903015;29;20462;-85
2022/12/19 07:50:22;;;;;;;48.50;21.60;;;3.90;55.70;;;;;;4920803;29;20502;-84
2022/12/19 07:52:49;;;;;;;56.43;23.40;;;4.00;55.40;;;;;;4892809;29;20459;-85
2022/12/19 07:55:16;;;;;;;55.70;23.30;;;4.10;55.30;;;;;;4892063;29;21027;-86
2022/12/19 07:57:43;;;;;;;45.87;19.93;;;4.10;55.00;;;;;;4904978;29;20479;-85
2022/12/19 08:00:12;;;;;;;53.20;21.40;;;4.00;55.10;;;;;;4918753;29;20574;-85
2022/12/19 08:02:40;;;;;;;54.87;24.77;;;3.80;55.50;;;;;;4899968;29;20888;-86
2022/12/19 08:05:07;;;;;;;50.57;20.87;;;3.70;56.10;;;;;;4878553;29;20466;-85
2022/12/19 08:07:35;;;;;;;47.13;22.60;;;3.80;56.20;;;;;;4930057;29;20994;-85
2022/12/19 08:10:01;;;;;;;45.87;20.43;;;4.00;55.90;;;;;;4863719;29;20451;-85
2022/12/19 08:12:28;;;;;;;43.40;18.77;;;3.90;55.80;;;;;;4885964;29;21002;-86
2022/12/19 08:14:55;;;;;;;47.83;21.37;;;4.00;56.20;;;;;;4915253;29;20478;-85
2022/12/19 08:17:25;;;;;;;44.47;21.47;;;4.20;55.80;;;;;;4914740;29;20537;-85
2022/12/19 08:19:52;;;;;;;49.63;20.20;;;4.30;55.40;;;;;;4899019;29;20503;-84
2022/12/19 08:22:19;;;;;;;42.57;19.00;;;4.40;55.20;;;;;;4893797;29;20478;-85
2022/12/19 08:24:45;;;;;;;45.67;19.80;;;4.50;55.10;;;;;;4888809;29;20459;-85
2022/12/19 08:27:12;;;;;;;42.50;20.37;;;4.30;54.90;;;;;;4922786;29;20447;-85
2022/12/19 08:29:39;;;;;;;49.97;22.13;;;4.20;55.30;;;;;;4928543;29;20454;-85
2022/12/19 08:32:06;;;;;;;50.90;23.07;;;4.40;55.30;;;;;;4915964;29;20821;-85
2022/12/19 08:34:35;;;;;;;45.13;22.83;;;4.50;55.00;;;;;;4905233;29;20462;-85
2022/12/19 08:37:02;;;;;;;45.07;18.90;;;4.50;54.40;;;;;;4871262;29;20451;-83
2022/12/19 08:39:29;;;;;;;62.23;31.53;;;4.30;55.00;;;;;;4879937;29;20489;-84
2022/12/19 08:41:56;;;;;;;51.57;22.30;;;4.20;55.70;;;;;;4874749;29;20467;-85
2022/12/19 08:44:23;;;;;;;43.10;21.17;;;4.10;55.50;;;;;;4931641;28;21484;-86
2022/12/19 08:46:50;;;;;;;46.30;20.03;;;4.20;55.50;;;;;;4909245;29;20456;-85
2022/12/19 08:49:17;;;;;;;50.60;20.47;;;4.30;55.10;;;;;;4892078;29;20464;-85
2022/12/19 08:51:46;;;;;;;41.73;21.03;;;4.10;55.10;;;;;;4897194;29;22161;-85
2022/12/19 08:54:13;;;;;;;42.27;18.77;;;4.00;55.70;;;;;;4922424;29;20470;-83
2022/12/19 08:56:40;;;;;;;50.10;20.70;;;3.90;55.80;;;;;;4888053;29;20460;-85
2022/12/19 08:59:07;;;;;;;50.43;20.77;;;3.80;56.40;;;;;;4899064;29;20833;-85
2022/12/19 09:01:34;;;;;;;52.50;20.90;;;3.80;56.60;;;;;;4898846;29;20502;-85
2022/12/19 09:04:01;;;;;;;39.23;17.93;;;4.10;56.40;;;;;;4886680;29;20944;-85
2022/12/19 09:06:27;;;;;;;49.70;20.20;;;4.00;55.40;;;;;;4906090;29;20473;-84
2022/12/19 09:08:56;;;;;;;56.63;20.90;;;4.10;55.80;;;;;;4890774;29;20481;-85
2022/12/19 09:11:23;;;;;;;50.83;23.37;;;4.30;55.60;;;;;;4903579;29;20485;-85
2022/12/19 09:13:50;;;;;;;48.63;22.70;;;4.50;55.40;;;;;;4889852;29;20485;-85
2022/12/19 09:16:19;;;;;;;47.83;21.90;;;4.30;55.20;;;;;;4906883;29;20459;-85
2022/12/19 09:18:48;;;;;;;47.53;22.83;;;4.20;55.00;;;;;;4881013;29;20989;-85
2022/12/19 09:21:15;;;;;;;53.80;20.50;;;4.30;55.20;;;;;;4909170;29;21016;-86
2022/12/19 09:23:43;;;;;;;46.00;21.37;;;4.00;56.00;;;;;;4907422;29;20484;-85
2022/12/19 09:26:13;;;;;;;47.50;20.97;;;4.10;56.30;;;;;;4917655;29;20467;-85
2022/12/19 09:28:41;;;;;;;47.33;22.13;;;4.30;55.90;;;;;;4926211;29;20530;-85
2022/12/19 09:31:12;;;;;;;54.70;21.27;;;4.40;55.80;;;;;;4904067;29;20459;-86
2022/12/19 09:33:39;;;;;;;42.00;20.30;;;4.50;55.40;;;;;;4877214;29;20466;-85
2022/12/19 09:36:08;;;;;;;41.47;19.17;;;4.60;56.20;;;;;;4910498;29;20535;-85
2022/12/19 09:38:35;;;;;;;43.03;20.67;;;4.70;55.40;;;;;;4903940;29;20496;-85
2022/12/19 09:41:33;;;;;;;51.73;22.00;;;4.80;55.50;;;;;;4902339;29;20564;-86
2022/12/19 09:44:09;;;;;;;43.33;20.10;;;4.90;54.40;;;;;;4909034;29;20494;-85
2022/12/19 09:46:45;;;;;;;56.87;26.37;;;4.90;54.50;;;;;;4918840;29;20464;-85
2022/12/19 09:49:14;;;;;;;44.70;21.07;;;4.80;54.00;;;;;;4914289;29;20565;-85
2022/12/19 09:51:47;;;;;;;50.53;19.40;;;4.80;54.30;;;;;;4902204;29;20471;-85
2022/12/19 09:54:22;;;;;;;50.93;20.00;;;4.80;54.50;;;;;;4932746;29;20475;-85
2022/12/19 09:56:57;;;;;;;52.10;22.97;;;4.80;54.40;;;;;;4866869;29;20462;-85
2022/12/19 09:59:27;;;;;;;43.70;21.07;;;4.90;54.40;;;;;;4914869;29;21019;-85
2022/12/19 10:02:01;;;;;;;50.17;23.13;;;4.80;54.70;;;;;;4910967;29;20493;-85
2022/12/19 10:04:32;;;;;;;47.60;20.80;;;4.80;54.70;;;;;;4892154;29;21071;-84
2022/12/19 10:07:00;;;;;;;48.70;23.87;;;5.00;54.60;;;;;;4902308;29;20977;-85
2022/12/19 10:09:32;;;;;;;39.27;21.70;;;5.00;54.40;;;;;;4922075;29;20487;-84
2022/12/19 10:12:17;;;;;;;50.67;21.87;;;5.00;54.00;;;;;;4894027;29;20491;-85
2022/12/19 10:14:57;;;;;;;44.53;20.57;;;4.80;54.10;;;;;;4915527;29;20482;-84
2022/12/19 10:17:33;;;;;;;51.60;21.07;;;4.60;54.30;;;;;;4885600;29;20457;-84
2022/12/19 10:20:15;;;;;;;48.67;19.50;;;4.50;55.00;;;;;;4900107;29;20457;-85
2022/12/19 10:22:55;;;;;;;39.97;21.83;;;4.40;55.10;;;;;;4900733;29;20458;-85
2022/12/19 10:25:37;;;;;;;44.23;20.73;;;4.40;55.80;;;;;;4918123;29;20474;-85
2022/12/19 10:28:19;;;;;;;45.80;20.70;;;4.60;55.40;;;;;;4904756;29;20458;-85
2022/12/19 10:30:58;;;;;;;49.60;23.00;;;4.90;55.40;;;;;;4907694;29;20444;-83
2022/12/19 10:33:31;;;;;;;42.33;20.10;;;4.80;54.90;;;;;;4880659;29;20451;-85
2022/12/19 10:36:01;;;;;;;49.20;22.00;;;4.50;55.50;;;;;;4916050;29;20443;-84
2022/12/19 10:38:34;;;;;;;50.07;20.33;;;4.50;56.10;;;;;;4915678;29;20447;-85
2022/12/19 10:41:16;;;;;;;48.07;21.97;;;4.60;55.60;;;;;;4888697;29;20472;-85
2022/12/19 10:43:52;;;;;;;48.93;21.50;;;4.40;55.40;;;;;;4871820;29;20494;-85
2022/12/19 10:46:28;;;;;;;49.43;22.47;;;4.50;55.80;;;;;;4892627;29;20466;-85
2022/12/19 10:48:55;;;;;;;48.73;22.07;;;4.60;55.90;;;;;;4918025;29;20459;-83
2022/12/19 10:51:26;;;;;;;42.17;20.80;;;4.70;55.60;;;;;;4900927;29;20468;-85
2022/12/19 10:53:55;;;;;;;42.50;21.23;;;4.80;55.50;;;;;;4902022;29;20490;-86
2022/12/19 10:56:24;;;;;;;44.07;20.87;;;5.00;55.80;;;;;;4900776;29;20524;-85
2022/12/19 10:58:57;;;;;;;47.67;22.40;;;5.00;55.40;;;;;;4898646;29;20460;-86
2022/12/19 11:01:27;;;;;;;42.07;20.80;;;5.00;55.30;;;;;;4916022;29;20490;-85
2022/12/19 11:04:14;;;;;;;44.80;21.53;;;5.00;55.00;;;;;;4921403;29;20490;-84
2022/12/19 11:06:46;;;;;;;50.30;22.00;;;5.10;55.30;;;;;;4879696;29;20460;-85
2022/12/19 11:09:22;;;;;;;48.37;20.70;;;5.10;55.30;;;;;;4906581;29;20455;-85
2022/12/19 11:11:59;;;;;;;45.17;21.30;;;5.30;55.10;;;;;;4914979;29;20450;-85
2022/12/19 11:14:29;;;;;;;51.77;20.20;;;5.20;54.60;;;;;;4915148;29;20582;-85
2022/12/19 11:16:57;;;;;;;41.30;19.43;;;5.00;55.20;;;;;;4906013;29;20459;-85
2022/12/19 11:19:30;;;;;;;41.13;19.10;;;4.70;55.50;;;;;;4894760;29;20479;-86
2022/12/19 11:22:00;;;;;;;45.97;21.33;;;4.60;55.70;;;;;;4890032;29;20511;-86
2022/12/19 11:24:34;;;;;;;53.77;21.90;;;4.80;56.00;;;;;;4890675;29;20480;-85
2022/12/19 11:27:01;;;;;;;37.90;19.07;;;4.70;56.10;;;;;;4915843;29;20451;-85
2022/12/19 11:29:42;;;;;;;40.47;20.10;;;4.80;56.00;;;;;;4875084;29;20455;-86
2022/12/19 11:32:24;;;;;;;47.03;22.27;;;5.00;56.10;;;;;;4906666;29;20455;-86
2022/12/19 11:35:00;;;;;;;43.83;19.80;;;5.10;55.60;;;;;;4920956;29;20475;-86
2022/12/19 11:37:35;;;;;;;47.10;21.00;;;5.30;55.80;;;;;;4903316;29;20483;-86
2022/12/19 11:40:06;;;;;;;37.03;19.93;;;5.20;55.60;;;;;;4890802;29;21044;-84
2022/12/19 11:42:37;;;;;;;43.23;20.53;;;5.30;55.70;;;;;;4906235;29;20486;-84
2022/12/19 11:45:15;;;;;;;56.83;23.40;;;5.50;55.60;;;;;;4891923;29;20550;-84
2022/12/19 11:47:47;;;;;;;43.97;20.80;;;5.60;55.40;;;;;;4915534;29;20539;-86
2022/12/19 11:50:26;;;;;;;41.63;21.20;;;5.50;55.50;;;;;;4891402;29;20463;-86
2022/12/19 11:53:08;;;;;;;49.50;21.63;;;5.20;55.40;;;;;;4914007;29;20459;-86
2022/12/19 11:55:42;;;;;;;56.47;22.73;;;5.40;55.80;;;;;;4897649;29;20462;-85
2022/12/19 11:58:11;;;;;;;45.53;21.60;;;5.60;55.20;;;;;;4881633;29;20462;-86
2022/12/19 12:00:44;;;;;;;49.20;22.37;;;5.60;55.50;;;;;;4927784;28;20525;-87
2022/12/19 12:03:34;;;;;;;45.93;22.30;;;5.60;55.50;;;;;;4917173;29;20459;-86
2022/12/19 12:06:11;;;;;;;54.03;22.40;;;5.60;55.90;;;;;;4875702;29;20462;-85
2022/12/19 12:08:55;;;;;;;48.43;21.17;;;5.70;56.20;;;;;;4888350;29;20458;-86
2022/12/19 12:11:25;;;;;;;32.77;19.23;;;5.40;55.40;;;;;;4865528;29;20542;-86
2022/12/19 12:14:15;;;;;;;47.90;22.43;;;5.40;56.50;;;;;;4912412;29;20464;-85
2022/12/19 12:16:59;;;;;;;55.20;22.40;;;5.10;56.50;;;;;;4890697;29;20466;-86
2022/12/19 12:19:44;;;;;;;48.17;22.70;;;5.10;57.60;;;;;;4872855;29;20455;-86
2022/12/19 12:22:25;;;;;;;46.00;22.50;;;5.10;58.10;;;;;;4912780;29;20482;-86
2022/12/19 12:24:59;;;;;;;44.77;19.93;;;5.00;58.20;;;;;;4912132;29;20488;-86
2022/12/19 12:27:42;;;;;;;46.67;21.90;;;5.20;58.40;;;;;;4897752;29;20459;-86
2022/12/19 12:30:11;;;;;;;41.70;20.20;;;5.50;58.10;;;;;;4886252;29;20463;-86
2022/12/19 12:32:59;;;;;;;49.90;22.63;;;5.80;57.80;;;;;;4883453;29;20542;-86
2022/12/19 12:35:34;;;;;;;46.53;22.27;;;6.00;57.50;;;;;;4922029;29;20467;-86
2022/12/19 12:38:23;;;;;;;45.00;23.03;;;6.10;56.90;;;;;;4896868;29;20451;-86
2022/12/19 12:41:04;;;;;;;54.63;23.30;;;6.10;57.00;;;;;;4889517;29;21302;-86
2022/12/19 12:43:54;;;;;;;51.53;25.30;;;6.20;56.80;;;;;;4913610;29;20479;-85
2022/12/19 12:46:25;;;;;;;47.03;21.23;;;5.80;57.10;;;;;;4930471;28;20569;-86
2022/12/19 12:48:58;;;;;;;66.27;31.60;;;5.60;58.30;;;;;;4914996;29;20443;-86
2022/12/19 12:51:26;;;;;;;62.87;31.40;;;5.50;58.00;;;;;;4872486;29;20444;-86
2022/12/19 12:54:02;;;;;;;65.53;29.67;;;5.40;58.10;;;;;;4887493;29;20487;-86
2022/12/19 12:56:29;;;;;;;64.60;31.50;;;5.60;57.80;;;;;;4882842;29;21395;-86
2022/12/19 12:59:05;;;;;;;61.77;28.07;;;5.50;58.30;;;;;;4914679;29;20999;-87
2022/12/19 13:01:35;;;;;;;62.43;28.87;;;5.40;58.50;;;;;;4908007;29;20557;-86